Time;durP1;ratioP1;P1;durP2;ratioP2;P2;SDS_P1;SDS_P2;PMS_P1;PMS_P2;Temp;Humidity;BMP_temperature;BMP_pressure;BME280_temperature;BME280_humidity;BME280_pressure;Samples;Min_cycle;Max_cycle;Signal;HPM_P1;HPM_P2
2024/04/15 00:00:11;;;;;;;7.33;1.37;;;12.60;99.90;;;;;;7287535;19;20193;-79
2024/04/15 00:02:44;;;;;;;9.00;1.50;;;12.50;99.90;;;;;;7289442;19;20213;-79
2024/04/15 00:05:10;;;;;;;7.30;1.30;;;12.50;99.90;;;;;;7289019;19;20196;-79
2024/04/15 00:07:36;;;;;;;10.80;1.43;;;12.40;99.90;;;;;;7288890;19;20220;-79
2024/04/15 00:10:02;;;;;;;5.67;1.00;;;12.30;99.90;;;;;;7288615;19;20195;-79
2024/04/15 00:12:27;;;;;;;5.17;1.20;;;12.30;99.90;;;;;;7288147;19;20742;-79
2024/04/15 00:14:53;;;;;;;7.00;1.50;;;12.30;99.90;;;;;;7288258;19;20184;-79
2024/04/15 00:17:19;;;;;;;5.23;1.20;;;12.30;99.90;;;;;;7287569;19;20550;-80
2024/04/15 00:19:44;;;;;;;7.67;1.30;;;12.20;99.90;;;;;;7308310;19;20219;-80
2024/04/15 00:22:10;;;;;;;5.50;1.30;;;12.10;99.90;;;;;;7288278;19;20196;-79
2024/04/15 00:24:36;;;;;;;5.13;1.07;;;12.10;99.90;;;;;;7286457;19;20192;-80
2024/04/15 00:27:02;;;;;;;4.63;1.07;;;12.00;99.90;;;;;;7287537;19;20209;-79
2024/04/15 00:29:27;;;;;;;5.67;1.40;;;12.00;99.90;;;;;;7287605;19;20190;-79
2024/04/15 00:31:53;;;;;;;6.23;1.30;;;11.90;99.90;;;;;;7286567;19;20257;-80
2024/04/15 00:34:19;;;;;;;6.90;1.30;;;11.90;99.90;;;;;;7286888;19;20784;-79
2024/04/15 00:36:45;;;;;;;7.07;1.33;;;11.70;99.90;;;;;;7309307;19;20198;-79
2024/04/15 00:39:11;;;;;;;6.27;1.17;;;11.70;99.90;;;;;;7286813;19;20191;-79
2024/04/15 00:41:37;;;;;;;8.70;1.10;;;11.70;99.90;;;;;;7288185;19;20305;-80
2024/04/15 00:44:03;;;;;;;8.13;1.30;;;11.60;99.90;;;;;;7286358;19;20199;-79
2024/04/15 00:46:30;;;;;;;5.07;1.07;;;11.60;99.90;;;;;;7286516;19;20307;-79
2024/04/15 00:48:56;;;;;;;5.67;1.13;;;11.50;99.90;;;;;;7285746;19;20699;-79
2024/04/15 00:51:23;;;;;;;6.00;1.10;;;11.50;99.90;;;;;;7286872;19;20192;-79
2024/04/15 00:53:52;;;;;;;5.73;1.13;;;11.40;99.90;;;;;;7286863;19;20194;-79
2024/04/15 00:56:20;;;;;;;7.37;1.30;;;11.40;99.90;;;;;;7296270;19;20192;-79
2024/04/15 00:58:46;;;;;;;6.07;1.23;;;11.30;99.90;;;;;;7308228;19;20182;-79
2024/04/15 01:01:13;;;;;;;7.37;2.03;;;11.20;99.90;;;;;;7287073;19;20187;-79
2024/04/15 01:03:39;;;;;;;5.60;1.30;;;11.30;99.90;;;;;;7285356;19;20562;-80
2024/04/15 01:06:05;;;;;;;4.60;1.10;;;11.20;99.90;;;;;;7285754;19;20212;-80
2024/04/15 01:08:32;;;;;;;9.30;1.50;;;11.20;99.90;;;;;;7284605;19;20194;-79
2024/04/15 01:10:58;;;;;;;8.30;1.37;;;11.10;99.90;;;;;;7285588;19;20202;-80
2024/04/15 01:13:25;;;;;;;5.20;1.10;;;10.90;99.90;;;;;;7286736;19;20187;-80
2024/04/15 01:15:57;;;;;;;7.93;1.17;;;10.80;99.90;;;;;;7287123;19;20536;-79
2024/04/15 01:18:23;;;;;;;3.93;1.00;;;10.90;99.90;;;;;;7287376;19;20188;-79
2024/04/15 01:20:51;;;;;;;5.67;1.20;;;10.80;99.90;;;;;;7284810;19;20295;-79
2024/04/15 01:23:21;;;;;;;8.80;1.50;;;10.70;99.90;;;;;;7304213;19;20282;-79
2024/04/15 01:25:47;;;;;;;6.23;1.23;;;10.70;99.90;;;;;;7304476;19;20209;-80
2024/04/15 01:28:17;;;;;;;4.53;1.40;;;10.70;99.90;;;;;;7298420;19;20199;-80
2024/04/15 01:30:43;;;;;;;7.30;1.30;;;10.70;99.90;;;;;;7287471;19;20209;-80
2024/04/15 01:33:08;;;;;;;6.70;1.30;;;10.80;99.90;;;;;;7285827;19;20211;-80
2024/04/15 01:35:34;;;;;;;7.27;1.20;;;10.70;99.90;;;;;;7286304;19;20191;-80
2024/04/15 01:38:00;;;;;;;5.03;1.20;;;10.60;99.90;;;;;;7285085;19;20566;-80
2024/04/15 01:40:26;;;;;;;7.27;1.37;;;10.50;99.90;;;;;;7286801;19;20204;-80
2024/04/15 01:42:51;;;;;;;7.53;1.33;;;10.50;99.90;;;;;;7283779;19;20559;-79
2024/04/15 01:45:17;;;;;;;3.80;1.10;;;10.50;99.90;;;;;;7300752;19;20600;-80
2024/04/15 01:47:45;;;;;;;7.57;1.30;;;10.50;99.90;;;;;;7300148;19;20185;-80
2024/04/15 01:50:11;;;;;;;5.83;1.10;;;10.50;99.90;;;;;;7285500;19;20206;-80
2024/04/15 01:52:37;;;;;;;8.20;1.43;;;10.50;99.90;;;;;;7282246;19;20209;-80
2024/04/15 01:55:03;;;;;;;5.33;1.13;;;10.40;99.90;;;;;;7286572;19;20194;-80
2024/04/15 01:57:28;;;;;;;8.33;1.80;;;10.40;99.90;;;;;;7284565;19;20605;-80
2024/04/15 01:59:54;;;;;;;6.83;1.37;;;10.40;99.90;;;;;;7284405;19;20198;-80
2024/04/15 02:02:20;;;;;;;10.50;1.30;;;10.30;99.90;;;;;;7284235;19;20193;-80
2024/04/15 02:04:46;;;;;;;8.13;1.30;;;10.30;99.90;;;;;;7307585;19;20182;-80
2024/04/15 02:07:12;;;;;;;9.97;1.53;;;10.30;99.90;;;;;;7283835;19;20193;-80
2024/04/15 02:09:37;;;;;;;7.33;1.37;;;10.20;99.90;;;;;;7286925;19;20183;-80
2024/04/15 02:12:03;;;;;;;9.33;1.50;;;10.20;99.90;;;;;;7284296;19;20192;-79
2024/04/15 02:14:29;;;;;;;7.53;1.40;;;10.10;99.90;;;;;;7285323;19;20197;-80
2024/04/15 02:16:55;;;;;;;6.23;1.37;;;10.10;99.90;;;;;;7283996;19;20188;-80
2024/04/15 02:19:21;;;;;;;8.93;1.60;;;10.10;99.90;;;;;;7284544;19;20193;-80
2024/04/15 02:21:46;;;;;;;7.97;1.40;;;10.10;99.90;;;;;;7306136;19;20630;-80
2024/04/15 02:24:13;;;;;;;11.43;1.50;;;10.10;99.90;;;;;;7284505;19;20280;-80
2024/04/15 02:26:39;;;;;;;9.93;1.60;;;10.10;99.90;;;;;;7284088;19;20194;-80
2024/04/15 02:29:05;;;;;;;10.40;1.90;;;10.20;99.90;;;;;;7284595;19;20196;-80
2024/04/15 02:31:31;;;;;;;9.57;1.80;;;10.20;99.90;;;;;;7283700;19;20581;-80
2024/04/15 02:33:56;;;;;;;7.30;1.60;;;10.20;99.90;;;;;;7283446;19;20187;-80
2024/04/15 02:36:22;;;;;;;8.80;1.77;;;10.10;99.90;;;;;;7283418;19;20630;-80
2024/04/15 02:38:49;;;;;;;8.03;1.80;;;10.00;99.90;;;;;;7291455;19;20609;-79
2024/04/15 02:41:15;;;;;;;8.20;1.50;;;9.80;99.90;;;;;;7306023;19;20191;-79
2024/04/15 02:43:41;;;;;;;10.70;1.80;;;9.80;99.90;;;;;;7283651;19;20191;-79
2024/04/15 02:46:07;;;;;;;8.83;1.90;;;9.80;99.90;;;;;;7284229;19;20202;-79
2024/04/15 02:48:33;;;;;;;10.20;1.67;;;9.90;99.90;;;;;;7283267;19;20190;-79
2024/04/15 02:50:59;;;;;;;8.33;1.67;;;9.80;99.90;;;;;;7282831;19;20529;-80
2024/04/15 02:53:25;;;;;;;11.27;1.80;;;9.80;99.90;;;;;;7285095;19;20633;-79
2024/04/15 02:55:53;;;;;;;10.50;1.50;;;9.70;99.90;;;;;;7287994;19;20194;-79
2024/04/15 02:58:19;;;;;;;10.10;2.17;;;9.60;99.90;;;;;;7292116;19;20197;-79
2024/04/15 03:00:46;;;;;;;9.37;1.97;;;9.60;99.90;;;;;;7312154;19;20193;-80
2024/04/15 03:03:11;;;;;;;9.03;1.93;;;9.70;99.90;;;;;;7291325;19;20650;-80
2024/04/15 03:05:41;;;;;;;13.47;1.77;;;9.60;99.90;;;;;;7290493;19;20213;-79
2024/04/15 03:08:06;;;;;;;12.30;1.93;;;9.60;99.90;;;;;;7291155;19;20660;-79
2024/04/15 03:10:32;;;;;;;9.70;1.67;;;9.60;99.90;;;;;;7289537;19;20207;-79
2024/04/15 03:12:58;;;;;;;13.97;2.27;;;9.60;99.90;;;;;;7290614;19;20678;-79
2024/04/15 03:15:24;;;;;;;13.27;2.00;;;9.50;99.90;;;;;;7288871;19;20188;-80
2024/04/15 03:17:50;;;;;;;13.60;2.27;;;9.60;99.90;;;;;;7288812;19;20192;-79
2024/04/15 03:20:16;;;;;;;12.50;2.47;;;9.60;99.90;;;;;;7309812;19;20196;-80
2024/04/15 03:22:49;;;;;;;12.73;1.73;;;9.50;99.90;;;;;;7288872;19;20682;-80
2024/04/15 03:25:16;;;;;;;9.13;2.00;;;9.50;99.90;;;;;;7289245;19;20181;-80
2024/04/15 03:27:42;;;;;;;14.73;2.27;;;9.50;99.90;;;;;;7290407;19;20693;-80
2024/04/15 03:30:08;;;;;;;12.80;2.00;;;9.50;99.90;;;;;;7288082;19;20178;-80
2024/04/15 03:32:34;;;;;;;10.87;2.10;;;9.50;99.90;;;;;;7288880;19;20713;-80
2024/04/15 03:35:00;;;;;;;15.40;2.43;;;9.40;99.90;;;;;;7289154;19;20186;-80
2024/04/15 03:37:26;;;;;;;16.80;2.20;;;9.40;99.90;;;;;;7289717;19;20192;-79
2024/04/15 03:39:52;;;;;;;15.07;2.40;;;9.60;99.90;;;;;;7288921;19;20191;-79
2024/04/15 03:42:17;;;;;;;14.40;2.53;;;9.50;99.90;;;;;;7302282;19;20196;-79
2024/04/15 03:44:43;;;;;;;11.70;2.20;;;9.40;99.90;;;;;;7304689;19;20181;-79
2024/04/15 03:47:09;;;;;;;11.60;1.80;;;9.30;99.90;;;;;;7288942;19;20188;-80
2024/04/15 03:49:35;;;;;;;13.07;2.53;;;9.30;99.90;;;;;;7288289;19;20199;-80
2024/04/15 03:52:01;;;;;;;19.10;2.50;;;9.20;99.90;;;;;;7288879;19;20189;-80
2024/04/15 03:54:27;;;;;;;12.23;2.43;;;9.20;99.90;;;;;;7287455;19;20648;-80
2024/04/15 03:56:54;;;;;;;13.83;2.27;;;9.20;99.90;;;;;;7287938;19;20193;-79
2024/04/15 03:59:20;;;;;;;14.73;2.97;;;9.20;99.90;;;;;;7287464;19;20189;-79
2024/04/15 04:01:45;;;;;;;16.03;2.47;;;9.20;99.90;;;;;;7310924;19;20195;-80
2024/04/15 04:04:11;;;;;;;15.63;2.37;;;9.20;99.90;;;;;;7293214;19;20181;-80
2024/04/15 04:06:37;;;;;;;18.20;2.50;;;9.20;99.90;;;;;;7292412;19;20709;-80
2024/04/15 04:09:03;;;;;;;16.67;2.40;;;9.20;99.90;;;;;;7292385;19;20209;-80
2024/04/15 04:11:28;;;;;;;11.63;2.30;;;9.20;99.90;;;;;;7289529;19;20653;-80
2024/04/15 04:13:54;;;;;;;16.47;2.53;;;9.20;99.90;;;;;;7287386;19;20683;-80
2024/04/15 04:16:21;;;;;;;18.10;2.60;;;9.20;99.90;;;;;;7288201;19;20667;-80
2024/04/15 04:18:47;;;;;;;14.53;2.63;;;9.10;99.90;;;;;;7309372;19;20185;-80
2024/04/15 04:21:13;;;;;;;15.03;2.47;;;9.20;99.90;;;;;;7289327;19;20185;-80
2024/04/15 04:23:39;;;;;;;15.67;2.90;;;9.20;99.90;;;;;;7288351;19;20249;-80
2024/04/15 04:26:04;;;;;;;16.63;2.80;;;9.10;99.90;;;;;;7287373;19;20208;-80
2024/04/15 04:28:30;;;;;;;15.67;2.80;;;9.10;99.90;;;;;;7287103;19;20189;-80
2024/04/15 04:31:05;;;;;;;16.73;3.10;;;9.20;99.90;;;;;;7287361;19;20221;-81
2024/04/15 04:33:32;;;;;;;33.83;6.90;;;9.20;99.90;;;;;;7289152;19;20208;-80
2024/04/15 04:35:58;;;;;;;18.53;3.03;;;9.30;99.90;;;;;;7287530;19;20767;-81
2024/04/15 04:38:24;;;;;;;17.93;3.67;;;9.30;99.90;;;;;;7286229;19;20623;-79
2024/04/15 04:40:57;;;;;;;20.30;3.97;;;9.30;99.90;;;;;;7286402;19;20191;-79
2024/04/15 04:43:23;;;;;;;19.97;4.10;;;9.40;99.90;;;;;;7285814;19;20564;-79
2024/04/15 04:45:49;;;;;;;17.70;3.93;;;9.50;99.90;;;;;;7286524;19;20637;-79
2024/04/15 04:48:15;;;;;;;22.40;4.23;;;9.60;99.90;;;;;;7309823;19;20196;-79
2024/04/15 04:50:40;;;;;;;19.90;3.60;;;9.60;99.90;;;;;;7288320;19;20184;-80
2024/04/15 04:53:06;;;;;;;13.47;3.13;;;9.60;99.90;;;;;;7287340;19;20197;-79
2024/04/15 04:55:36;;;;;;;17.53;3.87;;;9.60;99.90;;;;;;7286290;19;20191;-79
2024/04/15 04:58:06;;;;;;;14.07;4.00;;;9.60;99.90;;;;;;7286649;19;20215;-79
2024/04/15 05:00:32;;;;;;;26.57;3.90;;;9.60;99.90;;;;;;7286777;19;20216;-79
2024/04/15 05:02:58;;;;;;;16.73;3.57;;;9.50;99.90;;;;;;7285397;19;20197;-79
2024/04/15 05:05:24;;;;;;;19.53;3.80;;;9.50;99.90;;;;;;7287927;19;20196;-80
2024/04/15 05:07:51;;;;;;;25.30;3.80;;;9.50;99.90;;;;;;7287353;19;20185;-80
2024/04/15 05:10:17;;;;;;;21.53;4.13;;;9.50;99.90;;;;;;7307744;19;20285;-79
2024/04/15 05:12:42;;;;;;;18.37;3.90;;;9.50;99.90;;;;;;7285879;19;20189;-80
2024/04/15 05:15:08;;;;;;;18.63;3.23;;;9.40;99.90;;;;;;7285740;19;20174;-80
2024/04/15 05:17:34;;;;;;;18.07;3.73;;;9.50;99.90;;;;;;7283425;19;20190;-81
2024/04/15 05:20:01;;;;;;;16.97;3.67;;;9.50;99.90;;;;;;7286871;19;20204;-79
2024/04/15 05:22:27;;;;;;;33.90;3.93;;;9.60;99.90;;;;;;7286136;19;20189;-80
2024/04/15 05:24:56;;;;;;;18.43;3.47;;;9.60;99.90;;;;;;7284520;19;20188;-80
2024/04/15 05:27:22;;;;;;;18.93;3.77;;;9.60;99.90;;;;;;7286923;19;20177;-80
2024/04/15 05:29:47;;;;;;;20.67;4.10;;;9.50;99.90;;;;;;7302602;19;20256;-78
2024/04/15 05:32:13;;;;;;;23.33;3.97;;;9.50;99.90;;;;;;7299502;19;20202;-81
2024/04/15 05:34:39;;;;;;;22.30;4.37;;;9.60;99.90;;;;;;7287068;19;20189;-81
2024/04/15 05:37:05;;;;;;;19.03;3.90;;;9.70;99.90;;;;;;7284800;19;20620;-81
2024/04/15 05:39:31;;;;;;;22.77;5.00;;;10.30;99.90;;;;;;7286239;19;20201;-80
2024/04/15 05:41:57;;;;;;;17.13;3.50;;;10.60;99.90;;;;;;7284561;19;20177;-79
2024/04/15 05:44:23;;;;;;;19.47;3.33;;;10.90;99.90;;;;;;7284139;19;20743;-80
2024/04/15 05:46:51;;;;;;;17.90;3.83;;;11.40;99.90;;;;;;7286543;19;20184;-82
2024/04/15 05:49:17;;;;;;;22.53;3.77;;;12.10;99.90;;;;;;7307495;19;20196;-82
2024/04/15 05:51:45;;;;;;;17.97;3.57;;;12.50;99.90;;;;;;7287233;19;20661;-81
2024/04/15 05:54:11;;;;;;;22.07;3.53;;;12.10;99.90;;;;;;7285506;19;20203;-81
2024/04/15 05:56:37;;;;;;;18.87;4.37;;;12.00;99.90;;;;;;7285007;19;20210;-81
2024/04/15 05:59:03;;;;;;;20.70;3.83;;;12.00;99.90;;;;;;7284533;19;20187;-81
2024/04/15 06:01:29;;;;;;;15.93;3.40;;;11.50;99.90;;;;;;7285282;19;20655;-81
2024/04/15 06:03:54;;;;;;;18.80;4.37;;;11.60;99.90;;;;;;7285432;19;20207;-81
2024/04/15 06:06:20;;;;;;;19.30;4.37;;;11.40;99.90;;;;;;7284472;19;20193;-81
2024/04/15 06:08:48;;;;;;;28.43;4.33;;;11.20;99.90;;;;;;7306624;19;20197;-81
2024/04/15 06:11:13;;;;;;;21.57;3.87;;;10.90;99.90;;;;;;7285379;19;20255;-81
2024/04/15 06:13:39;;;;;;;19.57;4.10;;;10.90;99.90;;;;;;7285828;19;20250;-82
2024/04/15 06:16:05;;;;;;;23.67;3.70;;;11.10;99.90;;;;;;7284866;19;20190;-82
2024/04/15 06:18:31;;;;;;;22.60;4.30;;;11.50;99.90;;;;;;7286795;19;20195;-82
2024/04/15 06:20:56;;;;;;;17.43;3.40;;;11.90;99.90;;;;;;7285638;19;20208;-82
2024/04/15 06:23:22;;;;;;;23.13;3.90;;;12.40;99.90;;;;;;7287109;19;20201;-82
2024/04/15 06:25:54;;;;;;;20.10;3.67;;;12.60;99.90;;;;;;7304427;19;20264;-80
2024/04/15 06:28:20;;;;;;;14.63;3.33;;;13.30;99.90;;;;;;7284853;19;20195;-82
2024/04/15 06:30:46;;;;;;;19.30;3.73;;;14.20;99.90;;;;;;7305633;19;20914;-82
2024/04/15 06:33:12;;;;;;;19.53;3.50;;;14.60;99.90;;;;;;7283570;19;20708;-83
2024/04/15 06:35:37;;;;;;;19.27;3.33;;;15.30;99.90;;;;;;7284500;19;20224;-82
2024/04/15 06:38:03;;;;;;;24.13;3.30;;;15.90;99.90;;;;;;7290534;19;20199;-84
2024/04/15 06:40:30;;;;;;;17.87;2.73;;;17.00;99.90;;;;;;7288105;19;20211;-82
2024/04/15 06:42:56;;;;;;;18.20;3.27;;;16.70;99.90;;;;;;7289544;19;20180;-83
2024/04/15 06:45:22;;;;;;;20.37;3.07;;;17.00;99.90;;;;;;7289739;19;20188;-83
2024/04/15 06:47:49;;;;;;;14.77;3.67;;;17.20;99.90;;;;;;7307173;19;20211;-80
2024/04/15 06:50:16;;;;;;;19.50;2.90;;;17.10;99.90;;;;;;7308777;19;20236;-81
2024/04/15 06:52:41;;;;;;;23.63;3.63;;;16.80;99.90;;;;;;7284635;19;20192;-83
2024/04/15 06:55:11;;;;;;;14.83;3.00;;;17.60;99.90;;;;;;7283098;19;20658;-82
2024/04/15 06:57:36;;;;;;;16.80;3.27;;;18.20;99.90;;;;;;7284452;19;20193;-82
2024/04/15 07:00:03;;;;;;;15.00;2.77;;;18.80;99.90;;;;;;7284294;19;20193;-82
2024/04/15 07:02:28;;;;;;;15.87;3.13;;;19.20;99.90;;;;;;7283165;19;20272;-82
2024/04/15 07:04:54;;;;;;;17.30;2.70;;;20.20;99.90;;;;;;7284714;19;20200;-82
2024/04/15 07:07:22;;;;;;;17.80;3.30;;;21.50;99.90;;;;;;7284214;19;20283;-82
2024/04/15 07:09:47;;;;;;;13.90;2.37;;;22.20;99.90;;;;;;7301585;19;20194;-80
2024/04/15 07:12:13;;;;;;;16.10;2.67;;;22.10;99.90;;;;;;7293070;19;20670;-82
2024/04/15 07:14:39;;;;;;;17.07;2.77;;;23.00;99.90;;;;;;7282690;19;20206;-82
2024/04/15 07:17:05;;;;;;;12.13;2.43;;;23.90;99.90;;;;;;7281440;19;20201;-82
2024/04/15 07:19:31;;;;;;;13.00;2.90;;;24.10;99.90;;;;;;7283577;19;20205;-82
2024/04/15 07:21:57;;;;;;;15.77;2.70;;;24.00;99.90;;;;;;7281974;19;20200;-82
2024/04/15 07:24:22;;;;;;;17.20;3.10;;;22.60;99.90;;;;;;7282654;19;20188;-82
2024/04/15 07:26:48;;;;;;;17.13;2.80;;;21.90;99.90;;;;;;7296851;19;20566;-82
2024/04/15 07:29:14;;;;;;;17.47;2.83;;;21.30;99.90;;;;;;7299067;19;20707;-83
2024/04/15 07:31:39;;;;;;;12.50;2.43;;;21.10;99.90;;;;;;7282888;19;20207;-83
2024/04/15 07:34:06;;;;;;;18.60;3.27;;;20.50;99.90;;;;;;7282770;19;20193;-82
2024/04/15 07:36:31;;;;;;;17.87;2.93;;;19.50;99.90;;;;;;7281269;19;20189;-82
2024/04/15 07:38:58;;;;;;;13.97;2.53;;;19.10;99.90;;;;;;7282180;19;20213;-82
2024/04/15 07:41:25;;;;;;;11.93;2.50;;;18.90;99.90;;;;;;7285807;19;20197;-82
2024/04/15 07:43:52;;;;;;;15.93;2.80;;;19.00;99.90;;;;;;7287583;19;20604;-82
2024/04/15 07:46:17;;;;;;;13.57;2.67;;;19.10;99.90;;;;;;7308766;19;20234;-81
2024/04/15 07:48:43;;;;;;;14.50;2.60;;;18.50;99.90;;;;;;7295718;19;20185;-82
2024/04/15 07:51:09;;;;;;;16.93;2.27;;;19.30;99.90;;;;;;7288148;19;20200;-82
2024/04/15 07:53:34;;;;;;;11.53;2.60;;;20.60;99.90;;;;;;7287302;19;20608;-82
2024/04/15 07:56:00;;;;;;;13.83;2.30;;;21.70;99.90;;;;;;7287001;19;20188;-82
2024/04/15 07:58:26;;;;;;;12.77;2.30;;;23.00;99.90;;;;;;7287677;19;20220;-82
2024/04/15 08:00:53;;;;;;;11.43;2.03;;;22.90;99.90;;;;;;7286800;19;20921;-82
2024/04/15 08:03:19;;;;;;;12.57;2.20;;;23.20;99.90;;;;;;7289067;19;20197;-82
2024/04/15 08:05:45;;;;;;;12.10;1.90;;;24.00;99.90;;;;;;7310971;19;20627;-82
2024/04/15 08:08:10;;;;;;;13.47;2.47;;;24.30;99.90;;;;;;7288439;19;20177;-80
2024/04/15 08:10:37;;;;;;;12.27;2.15;;;25.20;99.80;;;;;;7288132;19;20181;-80
2024/04/15 08:13:03;;;;;;;11.48;2.33;;;26.60;96.00;;;;;;7288833;19;20640;-80
2024/04/15 08:15:33;;;;;;;9.90;2.10;;;26.20;94.00;;;;;;7287792;19;20218;-79
2024/04/15 08:18:00;;;;;;;13.80;2.47;;;25.10;93.20;;;;;;7288423;19;20205;-80
2024/04/15 08:20:26;;;;;;;14.83;2.27;;;22.70;95.90;;;;;;7288442;19;20666;-80
2024/04/15 08:22:52;;;;;;;13.17;2.17;;;21.90;98.50;;;;;;7287611;19;20200;-80
2024/04/15 08:25:18;;;;;;;15.93;2.40;;;21.50;99.90;;;;;;7302737;19;20284;-80
2024/04/15 08:27:43;;;;;;;11.73;2.20;;;21.40;99.90;;;;;;7299544;19;20541;-80
2024/04/15 08:30:09;;;;;;;13.00;2.20;;;20.20;99.90;;;;;;7288845;19;20242;-80
2024/04/15 08:32:35;;;;;;;13.43;2.23;;;19.30;99.90;;;;;;7286154;19;20185;-80
2024/04/15 08:35:02;;;;;;;11.00;2.33;;;18.10;99.90;;;;;;7289107;19;20260;-80
2024/04/15 08:37:27;;;;;;;14.43;2.07;;;16.80;99.90;;;;;;7286975;19;20519;-80
2024/04/15 08:39:53;;;;;;;11.50;2.27;;;16.50;99.90;;;;;;7286865;19;20232;-80
2024/04/15 08:42:32;;;;;;;11.53;2.13;;;16.70;99.90;;;;;;7291316;19;20185;-79
2024/04/15 08:44:59;;;;;;;12.30;2.00;;;16.30;99.90;;;;;;7286885;19;20890;-80
2024/04/15 08:47:33;;;;;;;13.20;2.17;;;16.20;99.90;;;;;;7287606;19;20179;-80
2024/04/15 08:49:59;;;;;;;10.93;2.00;;;15.80;99.90;;;;;;7286980;19;20186;-80
2024/04/15 08:52:25;;;;;;;14.27;2.30;;;15.60;99.90;;;;;;7286943;19;20195;-79
2024/04/15 08:54:51;;;;;;;14.07;2.33;;;15.40;99.90;;;;;;7288164;19;20196;-80
2024/04/15 08:57:17;;;;;;;10.60;2.10;;;15.50;99.90;;;;;;7308563;19;20267;-80
2024/04/15 08:59:45;;;;;;;9.20;2.00;;;15.70;99.90;;;;;;7288856;19;20294;-80
2024/04/15 09:02:16;;;;;;;10.63;1.80;;;15.70;99.90;;;;;;7287226;19;20197;-80
2024/04/15 09:04:43;;;;;;;13.97;2.37;;;15.50;99.90;;;;;;7285431;19;20201;-80
2024/04/15 09:07:09;;;;;;;14.90;2.67;;;15.40;99.90;;;;;;7286986;19;20570;-79
2024/04/15 09:09:35;;;;;;;13.10;2.20;;;15.40;99.90;;;;;;7287111;19;20216;-79
2024/04/15 09:12:01;;;;;;;14.83;2.70;;;15.80;99.90;;;;;;7286917;19;20202;-80
2024/04/15 09:14:27;;;;;;;15.97;2.47;;;16.00;99.90;;;;;;7286361;19;20209;-80
2024/04/15 09:16:54;;;;;;;15.57;2.37;;;16.00;99.90;;;;;;7285605;19;20192;-80
2024/04/15 09:19:22;;;;;;;13.53;2.47;;;16.20;99.90;;;;;;7285509;19;20211;-79
2024/04/15 09:21:48;;;;;;;13.17;1.80;;;16.60;99.90;;;;;;7305662;19;20726;-79
2024/04/15 09:24:14;;;;;;;16.97;2.03;;;16.50;99.90;;;;;;7297011;19;20364;-80
2024/04/15 09:26:39;;;;;;;16.37;2.10;;;16.40;99.90;;;;;;7286429;19;21130;-80
2024/04/15 09:29:05;;;;;;;17.67;2.80;;;16.00;99.90;;;;;;7286935;19;20209;-80
2024/04/15 09:31:32;;;;;;;14.37;2.40;;;15.90;99.90;;;;;;7285149;19;20220;-81
2024/04/15 09:33:58;;;;;;;13.17;2.60;;;15.80;99.90;;;;;;7285056;19;20195;-80
2024/04/15 09:36:30;;;;;;;11.90;1.83;;;15.70;99.90;;;;;;7286386;19;20209;-80
2024/04/15 09:38:57;;;;;;;17.60;1.90;;;16.20;99.90;;;;;;7285963;19;20211;-80
2024/04/15 09:41:24;;;;;;;12.83;1.97;;;16.30;99.90;;;;;;7286341;19;20195;-79
2024/04/15 09:43:52;;;;;;;17.17;1.97;;;16.30;99.90;;;;;;7287936;19;20191;-79
2024/04/15 09:46:20;;;;;;;14.17;2.13;;;16.00;99.90;;;;;;7302054;19;20647;-79
2024/04/15 09:48:48;;;;;;;10.27;1.70;;;15.90;99.90;;;;;;7309027;19;20198;-80
2024/04/15 09:51:20;;;;;;;10.13;1.90;;;16.40;99.90;;;;;;7284945;19;20623;-80
2024/04/15 09:53:50;;;;;;;8.80;1.43;;;17.20;99.90;;;;;;7287118;19;20702;-80
2024/04/15 09:56:27;;;;;;;12.17;1.80;;;18.30;99.90;;;;;;7286527;19;20196;-80
2024/04/15 09:58:57;;;;;;;15.10;1.70;;;20.00;99.90;;;;;;7183781;19;2004760;-80
2024/04/15 10:01:32;;;;;;;9.93;1.80;;;20.70;99.90;;;;;;7286057;19;20212;-80
2024/04/15 10:04:02;;;;;;;10.70;1.63;;;19.90;99.90;;;;;;7284090;19;20192;-80
2024/04/15 10:06:47;;;;;;;11.30;1.80;;;18.40;99.90;;;;;;7289453;19;20196;-80
2024/04/15 10:09:15;;;;;;;10.77;1.80;;;17.30;99.90;;;;;;7288062;19;20196;-80
2024/04/15 10:11:41;;;;;;;8.07;1.87;;;16.60;99.90;;;;;;7292096;19;20203;-82
2024/04/15 10:14:10;;;;;;;7.60;1.90;;;16.10;99.90;;;;;;7288201;19;20193;-80
2024/04/15 10:16:36;;;;;;;10.20;1.80;;;15.70;99.90;;;;;;7282969;19;20192;-80
2024/04/15 10:19:10;;;;;;;11.20;2.10;;;15.60;99.90;;;;;;7285658;19;20695;-80
2024/04/15 10:21:36;;;;;;;11.00;2.20;;;14.90;99.90;;;;;;7283955;19;20232;-80
2024/04/15 10:24:03;;;;;;;11.40;2.50;;;14.60;99.90;;;;;;7284359;19;20193;-80
2024/04/15 10:26:29;;;;;;;9.57;2.50;;;14.50;99.90;;;;;;7284887;19;20611;-80
2024/04/15 10:29:34;;;;;;;7.97;2.37;;;14.50;99.90;;;;;;7284523;19;20192;-80
2024/04/15 10:31:59;;;;;;;16.10;3.10;;;14.70;99.90;;;;;;7179861;19;2004545;-80
2024/04/15 10:34:27;;;;;;;9.17;2.77;;;14.50;99.90;;;;;;7283462;19;20285;-80
2024/04/15 10:36:55;;;;;;;12.57;3.37;;;14.30;99.90;;;;;;7282808;19;20187;-80
2024/04/15 10:39:24;;;;;;;17.67;3.40;;;14.00;99.90;;;;;;7283936;19;20189;-80
2024/04/15 10:41:50;;;;;;;14.03;3.83;;;13.80;99.90;;;;;;7286595;19;20186;-80
2024/04/15 10:44:15;;;;;;;12.83;3.67;;;13.70;99.90;;;;;;7306326;19;20191;-80
2024/04/15 10:46:47;;;;;;;11.77;2.90;;;13.70;99.90;;;;;;7284082;19;20201;-80
2024/04/15 10:49:14;;;;;;;9.90;3.20;;;13.70;99.90;;;;;;7284100;19;20276;-80
2024/04/15 10:51:40;;;;;;;10.37;3.70;;;13.90;99.90;;;;;;7285824;19;20209;-80
2024/04/15 10:54:06;;;;;;;11.33;3.67;;;14.00;99.90;;;;;;7282996;19;20215;-81
2024/04/15 10:56:32;;;;;;;11.67;3.60;;;14.40;99.90;;;;;;7282708;19;20197;-81
2024/04/15 10:58:59;;;;;;;11.93;3.93;;;14.20;99.90;;;;;;7282707;19;20185;-81
2024/04/15 11:01:25;;;;;;;13.47;3.80;;;14.00;99.90;;;;;;7281346;19;20224;-81
2024/04/15 11:03:50;;;;;;;9.60;3.20;;;13.90;99.90;;;;;;7281805;19;20189;-81
2024/04/15 11:06:17;;;;;;;10.90;3.27;;;14.10;99.90;;;;;;7304124;19;21089;-81
2024/04/15 11:08:44;;;;;;;10.13;2.90;;;14.80;99.90;;;;;;7282623;19;20558;-81
2024/04/15 11:11:10;;;;;;;11.57;3.07;;;15.60;99.90;;;;;;7281708;19;20643;-81
2024/04/15 11:13:39;;;;;;;7.70;2.90;;;15.60;99.90;;;;;;7281524;19;20203;-80
2024/04/15 11:16:06;;;;;;;9.63;3.17;;;15.10;99.90;;;;;;7285646;19;20190;-80
2024/04/15 11:18:31;;;;;;;10.30;2.77;;;15.00;99.90;;;;;;7289903;19;20259;-80
2024/04/15 11:20:58;;;;;;;10.00;2.80;;;14.60;99.90;;;;;;7289616;19;20197;-80
2024/04/15 11:23:30;;;;;;;8.10;2.30;;;14.40;99.90;;;;;;7289177;19;20202;-81
2024/04/15 11:25:59;;;;;;;10.30;2.50;;;14.40;99.90;;;;;;7289765;19;20254;-80
2024/04/15 11:28:27;;;;;;;9.23;2.53;;;14.20;99.90;;;;;;7290648;19;20186;-80
2024/04/15 11:30:54;;;;;;;12.17;2.30;;;14.20;99.90;;;;;;7288482;19;20535;-80
2024/04/15 11:33:23;;;;;;;9.33;2.07;;;14.20;99.90;;;;;;7288878;19;20201;-80
2024/04/15 11:35:53;;;;;;;9.80;2.03;;;14.10;99.90;;;;;;7297756;19;20285;-80
2024/04/15 11:38:21;;;;;;;7.37;1.60;;;14.30;99.90;;;;;;7298172;19;20693;-80
2024/04/15 11:40:48;;;;;;;5.43;1.30;;;14.20;99.90;;;;;;7309752;19;20684;-80
2024/04/15 11:43:14;;;;;;;5.93;1.37;;;14.30;99.90;;;;;;7289941;19;20199;-81
2024/04/15 11:45:53;;;;;;;7.63;1.53;;;14.50;99.90;;;;;;7289810;19;20188;-81
2024/04/15 11:48:20;;;;;;;10.13;1.70;;;14.60;99.90;;;;;;7272450;19;20716;-80
2024/04/15 11:50:48;;;;;;;5.40;1.13;;;14.30;99.90;;;;;;7311601;19;20188;-81
2024/04/15 11:53:14;;;;;;;7.83;1.50;;;14.40;99.90;;;;;;7288839;19;20181;-81
2024/04/15 11:55:40;;;;;;;8.27;1.40;;;14.50;99.90;;;;;;7287875;19;20224;-81
2024/04/15 11:58:07;;;;;;;7.17;1.23;;;14.90;99.90;;;;;;7289082;19;20187;-81
2024/04/15 12:00:33;;;;;;;5.73;1.00;;;15.10;99.90;;;;;;7286463;19;20225;-81
2024/04/15 12:02:59;;;;;;;9.70;1.43;;;15.00;99.90;;;;;;7287829;19;20212;-81
2024/04/15 12:05:26;;;;;;;7.67;1.00;;;14.90;99.90;;;;;;7287342;19;20187;-81
2024/04/15 12:07:52;;;;;;;6.03;1.40;;;14.70;99.90;;;;;;7289152;19;20189;-81
2024/04/15 12:10:18;;;;;;;9.17;1.27;;;14.70;99.90;;;;;;7309963;19;20198;-81
2024/04/15 12:12:44;;;;;;;3.67;0.70;;;14.70;99.90;;;;;;7288934;19;20187;-81
2024/04/15 12:15:10;;;;;;;4.70;1.00;;;14.70;99.90;;;;;;7287553;19;20203;-81
2024/04/15 12:17:36;;;;;;;7.10;0.93;;;14.40;99.90;;;;;;7289315;19;20197;-81
2024/04/15 12:20:04;;;;;;;5.90;0.80;;;14.30;99.90;;;;;;7287589;19;20601;-80
2024/04/15 12:22:30;;;;;;;10.03;1.07;;;14.40;99.90;;;;;;7287590;19;20228;-81
2024/04/15 12:24:56;;;;;;;4.70;1.00;;;14.80;99.90;;;;;;7287446;19;20609;-80
2024/04/15 12:27:22;;;;;;;8.33;1.20;;;15.20;99.90;;;;;;7288439;19;20198;-80
2024/04/15 12:29:48;;;;;;;6.53;1.00;;;14.90;99.90;;;;;;7309509;19;20201;-80
2024/04/15 12:32:14;;;;;;;5.90;1.20;;;14.90;99.90;;;;;;7287923;19;20208;-81
2024/04/15 12:34:39;;;;;;;5.60;1.40;;;14.90;99.90;;;;;;7288857;19;20223;-81
2024/04/15 12:37:05;;;;;;;7.27;1.37;;;14.60;99.90;;;;;;7287217;19;20556;-81
2024/04/15 12:39:31;;;;;;;8.70;1.37;;;14.40;99.90;;;;;;7288584;19;20198;-81